createdAt,value
2022-11-01T00:02:06.055Z,12.32
2022-11-01T00:04:32.558Z,12.33
2022-11-01T00:06:59.002Z,12.27
2022-11-01T00:09:25.650Z,12.25
2022-11-01T00:11:52.218Z,12.27
2022-11-01T00:14:19.942Z,12.22
2022-11-01T00:16:46.390Z,12.16
2022-11-01T00:19:12.842Z,12.17
2022-11-01T00:21:39.425Z,12.24
2022-11-01T00:24:06.532Z,12.19
2022-11-01T00:26:33.085Z,12.16
2022-11-01T00:28:59.558Z,12.19
2022-11-01T00:31:26.363Z,12.13
2022-11-01T00:33:52.839Z,12.13
2022-11-01T00:36:19.339Z,12.17
2022-11-01T00:38:49.668Z,12.19
2022-11-01T00:41:16.067Z,12.19
2022-11-01T00:43:42.495Z,12.10
2022-11-01T00:46:08.913Z,12.11
2022-11-01T00:48:35.321Z,11.95
2022-11-01T00:51:01.745Z,11.92
2022-11-01T00:53:28.181Z,11.96
2022-11-01T00:56:01.379Z,11.90
2022-11-01T00:58:27.912Z,11.97
2022-11-01T01:00:54.444Z,11.92
2022-11-01T01:03:21.409Z,11.90
2022-11-01T01:05:52.918Z,11.81
2022-11-01T01:08:20.155Z,11.81
2022-11-01T01:10:47.080Z,11.81
2022-11-01T01:13:13.484Z,11.81
2022-11-01T01:15:40.031Z,11.70
2022-11-01T01:18:06.861Z,11.74
2022-11-01T01:20:33.820Z,11.61
2022-11-01T01:23:00.258Z,11.63
2022-11-01T01:25:26.731Z,11.55
2022-11-01T01:27:53.222Z,11.51
2022-11-01T01:30:19.632Z,11.62
2022-11-01T01:32:46.075Z,11.74
2022-11-01T01:35:12.599Z,11.83
2022-11-01T01:37:39.203Z,11.89
2022-11-01T01:40:07.231Z,11.88
2022-11-01T01:42:39.983Z,11.81
2022-11-01T01:45:30.527Z,11.82
2022-11-01T01:48:24.685Z,11.84
2022-11-01T01:50:57.238Z,11.81
2022-11-01T01:53:30.528Z,11.81
2022-11-01T01:56:21.671Z,11.72
2022-11-01T01:58:57.111Z,11.71
2022-11-01T02:01:23.672Z,11.67
2022-11-01T02:03:51.035Z,11.60
2022-11-01T02:06:20.269Z,11.64
2022-11-01T02:08:51.312Z,11.58
2022-11-01T02:11:19.426Z,11.49
2022-11-01T02:13:45.873Z,11.43
2022-11-01T02:16:33.565Z,11.38
2022-11-01T02:19:38.619Z,11.36
2022-11-01T02:23:01.893Z,11.44
2022-11-01T02:26:07.000Z,11.45
2022-11-01T02:29:00.439Z,11.42
2022-11-01T02:31:32.593Z,11.40
2022-11-01T02:34:07.098Z,11.44
2022-11-01T02:36:45.608Z,11.40
2022-11-01T02:39:20.821Z,11.34
2022-11-01T02:41:58.331Z,11.33
2022-11-01T02:44:27.674Z,11.35
2022-11-01T02:47:02.110Z,11.30
2022-11-01T02:49:37.169Z,11.22
2022-11-01T02:52:05.527Z,11.29
2022-11-01T02:54:33.492Z,11.34
2022-11-01T02:57:06.874Z,11.34
2022-11-01T02:59:45.815Z,11.31
2022-11-01T03:02:48.375Z,11.30
2022-11-01T03:05:21.558Z,11.24
2022-11-01T03:07:55.155Z,11.26
2022-11-01T03:10:27.044Z,11.22
2022-11-01T03:13:05.750Z,11.22
2022-11-01T03:15:39.854Z,11.21
2022-11-01T03:18:20.086Z,11.27
2022-11-01T03:20:56.331Z,11.32
2022-11-01T03:23:31.615Z,11.31
2022-11-01T03:26:01.985Z,11.32
2022-11-01T03:28:42.291Z,11.27
2022-11-01T03:31:16.329Z,11.18
2022-11-01T03:33:47.795Z,11.23
2022-11-01T03:36:20.087Z,11.20
2022-11-01T03:38:54.419Z,11.07
2022-11-01T03:41:23.160Z,11.11
2022-11-01T03:43:50.193Z,11.09
2022-11-01T03:46:16.786Z,11.11
2022-11-01T03:48:43.342Z,11.15
2022-11-01T03:51:09.730Z,11.14
2022-11-01T03:53:36.166Z,11.07
2022-11-01T03:56:02.682Z,11.02
2022-11-01T03:58:41.502Z,10.96
2022-11-01T04:01:16.851Z,10.88
2022-11-01T04:03:44.414Z,10.86
2022-11-01T04:06:11.216Z,10.90
2022-11-01T04:08:38.108Z,10.90
2022-11-01T04:11:04.655Z,10.91
2022-11-01T04:13:31.305Z,10.90
2022-11-01T04:16:16.830Z,10.78
2022-11-01T04:19:01.547Z,10.72
2022-11-01T04:21:30.567Z,10.71
2022-11-01T04:23:56.962Z,10.66
2022-11-01T04:26:24.268Z,10.67
2022-11-01T04:28:57.388Z,10.66
2022-11-01T04:31:28.623Z,10.74
2022-11-01T04:33:56.857Z,10.82
2022-11-01T04:36:24.054Z,10.93
2022-11-01T04:38:52.074Z,11.00
2022-11-01T04:41:19.639Z,11.09
2022-11-01T04:43:49.809Z,11.12
2022-11-01T04:46:16.453Z,11.05
2022-11-01T04:48:42.882Z,11.04
2022-11-01T04:51:10.234Z,11.01
2022-11-01T04:53:37.043Z,11.05
2022-11-01T04:56:05.302Z,11.12
2022-11-01T04:58:34.001Z,11.15
2022-11-01T05:01:05.332Z,11.16
2022-11-01T05:03:31.801Z,11.07
2022-11-01T05:05:59.332Z,11.05
2022-11-01T05:08:25.748Z,11.06
2022-11-01T05:10:54.905Z,11.10
2022-11-01T05:13:21.657Z,11.13
2022-11-01T05:16:06.710Z,11.10
2022-11-01T05:18:34.577Z,11.04
2022-11-01T05:21:01.010Z,11.07
2022-11-01T05:23:27.471Z,11.17
2022-11-01T05:25:53.887Z,11.21
2022-11-01T05:28:20.365Z,11.23
2022-11-01T05:30:46.805Z,11.22
2022-11-01T05:33:13.245Z,11.17
2022-11-01T05:35:39.893Z,11.12
2022-11-01T05:38:06.495Z,11.23
2022-11-01T05:40:33.365Z,11.29
2022-11-01T05:43:00.247Z,11.30
2022-11-01T05:45:26.903Z,11.22
2022-11-01T05:47:53.344Z,11.25
2022-11-01T05:50:20.280Z,11.20
2022-11-01T05:52:46.804Z,11.22
2022-11-01T05:55:13.264Z,11.22
2022-11-01T05:57:39.769Z,11.19
2022-11-01T06:00:06.961Z,11.21
2022-11-01T06:02:34.363Z,11.26
2022-11-01T06:05:03.041Z,11.34
2022-11-01T06:07:29.826Z,11.35
2022-11-01T06:09:56.256Z,11.42
2022-11-01T06:12:24.445Z,11.52
2022-11-01T06:14:51.151Z,11.57
2022-11-01T06:17:17.645Z,11.58
2022-11-01T06:19:44.139Z,11.52
2022-11-01T06:22:10.573Z,11.49
2022-11-01T06:24:37.076Z,11.50
2022-11-01T06:27:04.139Z,11.50
2022-11-01T06:29:32.806Z,11.57
2022-11-01T06:31:59.220Z,11.64
2022-11-01T06:34:25.656Z,11.67
2022-11-01T06:36:52.057Z,11.69
2022-11-01T06:39:18.603Z,11.71
2022-11-01T06:41:45.060Z,11.79
2022-11-01T06:44:11.490Z,11.84
2022-11-01T06:46:37.975Z,11.89
2022-11-01T06:49:04.376Z,11.85
2022-11-01T06:51:30.783Z,11.88
2022-11-01T06:53:57.187Z,11.89
2022-11-01T06:56:23.636Z,11.90
2022-11-01T06:58:50.683Z,11.83
2022-11-01T07:01:22.184Z,11.77
2022-11-01T07:03:52.395Z,11.83
2022-11-01T07:06:19.637Z,11.90
2022-11-01T07:08:46.346Z,11.96
2022-11-01T07:11:12.824Z,12.02
2022-11-01T07:13:39.228Z,12.07
2022-11-01T07:16:05.903Z,12.12
2022-11-01T07:18:32.788Z,12.22
2022-11-01T07:21:02.974Z,12.33
2022-11-01T07:23:29.854Z,12.39
2022-11-01T07:25:56.405Z,12.42
2022-11-01T07:28:23.315Z,12.45
2022-11-01T07:30:53.529Z,12.52
2022-11-01T07:33:20.495Z,12.50
2022-11-01T07:35:47.766Z,12.48
2022-11-01T07:38:14.994Z,12.41
2022-11-01T07:40:41.645Z,12.42
2022-11-01T07:43:08.411Z,12.42
2022-11-01T07:45:35.655Z,12.48
2022-11-01T07:48:05.042Z,12.48
2022-11-01T07:50:33.282Z,12.50
2022-11-01T07:53:08.316Z,12.54
2022-11-01T07:55:35.679Z,12.56
2022-11-01T07:58:03.238Z,12.63
2022-11-01T08:00:31.645Z,12.70
2022-11-01T08:03:06.803Z,12.72
2022-11-01T08:05:33.498Z,12.81
2022-11-01T08:08:00.346Z,12.91
2022-11-01T08:10:28.303Z,12.97
2022-11-01T08:13:22.537Z,13.01
2022-11-01T08:15:50.589Z,12.98
2022-11-01T08:18:18.191Z,12.97
2022-11-01T08:20:44.720Z,13.00
2022-11-01T08:23:11.416Z,12.97
2022-11-01T08:25:38.004Z,12.96
2022-11-01T08:28:11.029Z,13.00
2022-11-01T08:30:39.083Z,13.01
2022-11-01T08:33:06.447Z,13.00
2022-11-01T08:35:34.324Z,13.03
2022-11-01T08:38:03.262Z,13.13
2022-11-01T08:40:30.479Z,13.19
2022-11-01T08:42:57.154Z,13.17
2022-11-01T08:45:24.433Z,13.21
2022-11-01T08:47:57.640Z,13.27
2022-11-01T08:50:24.108Z,13.27
2022-11-01T08:52:50.527Z,13.31
2022-11-01T08:55:17.060Z,13.33
2022-11-01T08:57:43.459Z,13.40
2022-11-01T09:00:10.449Z,13.49
2022-11-01T09:02:36.962Z,13.55
2022-11-01T09:05:06.071Z,13.59
2022-11-01T09:07:37.351Z,13.62
2022-11-01T09:10:04.416Z,13.64
2022-11-01T09:12:31.207Z,13.68
2022-11-01T09:14:57.776Z,13.75
2022-11-01T09:17:24.232Z,13.83
2022-11-01T09:19:50.670Z,13.91
2022-11-01T09:22:17.263Z,13.97
2022-11-01T09:24:43.687Z,13.99
2022-11-01T09:27:10.162Z,14.05
2022-11-01T09:29:37.430Z,14.08
2022-11-01T09:32:03.856Z,14.12
2022-11-01T09:34:30.294Z,14.13
2022-11-01T09:36:56.773Z,14.14
2022-11-01T09:39:23.961Z,14.16
2022-11-01T09:41:56.948Z,14.15
2022-11-01T09:44:27.912Z,14.19
2022-11-01T09:47:03.961Z,14.23
2022-11-01T09:49:35.540Z,14.27
2022-11-01T09:52:02.167Z,14.28
2022-11-01T09:54:28.866Z,14.30
2022-11-01T09:57:14.866Z,14.33
2022-11-01T09:59:56.478Z,14.35
2022-11-01T10:02:41.674Z,14.36
2022-11-01T10:05:26.900Z,14.40
2022-11-01T10:08:04.735Z,14.43
2022-11-01T10:11:00.696Z,14.49
2022-11-01T10:14:05.722Z,14.58
2022-11-01T10:16:49.209Z,14.65
2022-11-01T10:19:18.814Z,14.69
2022-11-01T10:21:49.145Z,14.72
2022-11-01T10:24:24.813Z,14.77
2022-11-01T10:26:59.787Z,14.83
2022-11-01T10:30:08.600Z,14.89
2022-11-01T10:32:45.574Z,14.93
2022-11-01T10:35:21.115Z,14.99
2022-11-01T10:38:19.171Z,15.03
2022-11-01T10:41:06.681Z,15.10
2022-11-01T10:43:38.874Z,15.16
2022-11-01T10:46:08.980Z,15.22
2022-11-01T10:48:44.813Z,15.27
2022-11-01T10:51:15.068Z,15.33
2022-11-01T10:53:47.418Z,15.37
2022-11-01T10:56:24.043Z,15.41
2022-11-01T10:59:05.507Z,15.45
2022-11-01T11:01:39.066Z,15.49
2022-11-01T11:04:11.291Z,15.55
2022-11-01T11:06:40.212Z,15.60
2022-11-01T11:09:07.381Z,15.65
2022-11-01T11:11:45.400Z,15.76
2022-11-01T11:14:12.806Z,15.81
2022-11-01T11:16:45.752Z,15.84
2022-11-01T11:19:35.454Z,15.85
2022-11-01T11:22:07.492Z,15.91
2022-11-01T11:24:38.687Z,15.95
2022-11-01T11:27:11.775Z,15.99
2022-11-01T11:29:50.342Z,16.06
2022-11-01T11:32:20.616Z,16.12
2022-11-01T11:35:03.038Z,16.17
2022-11-01T11:37:33.541Z,16.24
2022-11-01T11:39:59.962Z,16.34
2022-11-01T11:42:26.808Z,16.40
2022-11-01T11:45:18.525Z,16.49
2022-11-01T11:47:47.861Z,16.51
2022-11-01T11:50:20.489Z,16.52
2022-11-01T11:53:13.265Z,16.59
2022-11-01T11:55:48.889Z,16.59
2022-11-01T11:58:40.203Z,16.63
2022-11-01T12:01:21.092Z,16.63
2022-11-01T12:03:58.091Z,16.66
2022-11-01T12:06:27.503Z,16.68
2022-11-01T12:08:56.836Z,16.69
2022-11-01T12:11:25.179Z,16.72
2022-11-01T12:14:02.502Z,16.68
2022-11-01T12:16:29.499Z,16.73
2022-11-01T12:18:58.192Z,16.68
2022-11-01T12:21:34.493Z,16.62
2022-11-01T12:24:21.527Z,16.59
2022-11-01T12:26:51.396Z,16.54
2022-11-01T12:29:24.409Z,16.61
2022-11-01T12:31:52.168Z,16.61
2022-11-01T12:34:26.536Z,16.59
2022-11-01T12:37:00.555Z,16.61
2022-11-01T12:39:40.201Z,16.69
2022-11-01T12:42:14.725Z,16.80
2022-11-01T12:44:50.642Z,16.82
2022-11-01T12:47:42.384Z,16.76
2022-11-01T12:50:22.726Z,16.78
2022-11-01T12:53:03.362Z,16.80
2022-11-01T12:55:35.172Z,16.78
2022-11-01T12:58:03.506Z,16.71
2022-11-01T13:00:54.920Z,16.69
2022-11-01T13:03:37.849Z,16.72
2022-11-01T13:06:42.443Z,16.70
2022-11-01T13:09:21.751Z,16.67
2022-11-01T13:12:17.255Z,16.60
2022-11-01T13:15:09.463Z,16.51
2022-11-01T13:18:00.830Z,16.42
2022-11-01T13:20:33.369Z,16.35
2022-11-01T13:23:06.404Z,16.26
2022-11-01T13:25:52.405Z,16.17
2022-11-01T13:28:29.615Z,16.04
2022-11-01T13:31:18.388Z,15.97
2022-11-01T13:34:03.967Z,15.87
2022-11-01T13:36:33.256Z,15.80
2022-11-01T13:39:13.844Z,15.73
2022-11-01T13:41:53.723Z,15.63
2022-11-01T13:44:27.462Z,15.52
2022-11-01T13:47:08.263Z,15.42
2022-11-01T13:49:59.693Z,15.31
2022-11-01T13:52:29.767Z,15.27
2022-11-01T13:55:21.078Z,15.24
2022-11-01T13:57:47.569Z,15.20
2022-11-01T14:00:38.797Z,15.14
2022-11-01T14:03:23.677Z,15.11
2022-11-01T14:06:09.357Z,15.08
2022-11-01T14:08:43.327Z,15.06
2022-11-01T14:11:38.973Z,15.06
2022-11-01T14:14:31.125Z,15.05
2022-11-01T14:17:15.772Z,15.02
2022-11-01T14:19:43.114Z,15.02
2022-11-01T14:22:30.994Z,14.98
2022-11-01T14:25:00.000Z,14.96
2022-11-01T14:27:29.724Z,14.97
2022-11-01T14:29:56.680Z,14.94
2022-11-01T14:32:26.698Z,14.94
2022-11-01T14:35:11.959Z,14.90
2022-11-01T14:37:47.515Z,14.90
2022-11-01T14:40:31.723Z,14.88
2022-11-01T14:43:11.086Z,14.89
2022-11-01T14:45:42.016Z,14.88
2022-11-01T14:48:24.111Z,14.88
2022-11-01T14:50:59.843Z,14.86
2022-11-01T14:53:32.415Z,14.86
2022-11-01T14:56:15.200Z,14.85
2022-11-01T14:58:43.648Z,14.84
2022-11-01T15:01:17.212Z,14.83
2022-11-01T15:03:58.774Z,14.87
2022-11-01T15:06:30.986Z,14.89
2022-11-01T15:09:04.108Z,14.96
2022-11-01T15:11:32.954Z,14.97
2022-11-01T15:14:02.980Z,14.99
2022-11-01T15:16:30.099Z,15.01
2022-11-01T15:19:02.302Z,15.03
2022-11-01T15:21:31.435Z,15.05
2022-11-01T15:23:59.156Z,15.03
2022-11-01T15:26:29.747Z,15.06
2022-11-01T15:28:59.587Z,15.05
2022-11-01T15:31:26.243Z,15.05
2022-11-01T15:33:54.042Z,15.04
2022-11-01T15:36:26.823Z,15.06
2022-11-01T15:38:56.309Z,15.09
2022-11-01T15:41:27.661Z,15.07
2022-11-01T15:43:56.892Z,15.05
2022-11-01T15:46:39.200Z,15.02
2022-11-01T15:49:09.507Z,14.99
2022-11-01T15:51:41.752Z,15.00
2022-11-01T15:54:31.877Z,14.99
2022-11-01T15:57:02.950Z,14.97
2022-11-01T16:00:18.798Z,14.97
2022-11-01T16:02:49.772Z,14.94
2022-11-01T16:05:19.282Z,14.94
2022-11-01T16:07:46.939Z,14.94
2022-11-01T16:10:22.989Z,14.93
2022-11-01T16:12:50.975Z,14.94
2022-11-01T16:15:27.254Z,14.95
2022-11-01T16:17:57.299Z,14.92
2022-11-01T16:20:31.915Z,14.93
2022-11-01T16:23:04.525Z,14.92
2022-11-01T16:25:32.965Z,14.89
2022-11-01T16:28:00.098Z,14.86
2022-11-01T16:30:45.265Z,14.85
2022-11-01T16:33:20.771Z,14.82
2022-11-01T16:35:49.507Z,14.79
2022-11-01T16:38:26.700Z,14.75
2022-11-01T16:41:01.780Z,14.71
2022-11-01T16:43:31.679Z,14.67
2022-11-01T16:45:58.933Z,14.62
2022-11-01T16:48:27.417Z,14.60
2022-11-01T16:50:55.442Z,14.58
2022-11-01T16:53:24.646Z,14.55
2022-11-01T16:55:57.802Z,14.53
2022-11-01T16:58:29.236Z,14.49
2022-11-01T17:02:08.216Z,14.48
2022-11-01T17:04:34.895Z,14.44
2022-11-01T17:07:01.314Z,14.46
2022-11-01T17:09:30.715Z,14.44
2022-11-01T17:11:57.190Z,14.43
2022-11-01T17:14:23.893Z,14.40
2022-11-01T17:16:52.453Z,14.38
2022-11-01T17:19:28.511Z,14.39
2022-11-01T17:21:56.010Z,14.39
2022-11-01T17:24:25.545Z,14.38
2022-11-01T17:26:54.133Z,14.38
2022-11-01T17:29:20.533Z,14.39
2022-11-01T17:31:46.945Z,14.39
2022-11-01T17:34:13.457Z,14.39
2022-11-01T17:36:46.259Z,14.39
2022-11-01T17:39:12.831Z,14.39
2022-11-01T17:41:39.527Z,14.40
2022-11-01T17:44:06.212Z,14.44
2022-11-01T17:46:32.872Z,14.45
2022-11-01T17:48:59.315Z,14.46
2022-11-01T17:51:25.759Z,14.47
2022-11-01T17:53:53.560Z,14.45
2022-11-01T17:56:20.076Z,14.45
2022-11-01T17:58:52.123Z,14.43
2022-11-01T18:01:20.748Z,14.41
2022-11-01T18:03:47.675Z,14.40
2022-11-01T18:06:14.265Z,14.40
2022-11-01T18:08:46.794Z,14.40
2022-11-01T18:11:34.848Z,14.43
2022-11-01T18:14:26.292Z,14.42
2022-11-01T18:16:59.145Z,14.44
2022-11-01T18:19:31.414Z,14.41
2022-11-01T18:22:34.835Z,14.37
2022-11-01T18:25:15.391Z,14.36
2022-11-01T18:27:41.779Z,14.34
2022-11-01T18:30:14.199Z,14.33
2022-11-01T18:32:48.970Z,14.29
2022-11-01T18:35:30.624Z,14.26
2022-11-01T18:38:26.625Z,14.23
2022-11-01T18:41:01.399Z,14.21
2022-11-01T18:43:37.582Z,14.19
2022-11-01T18:46:30.697Z,14.19
2022-11-01T18:49:00.792Z,14.13
2022-11-01T18:51:30.112Z,14.10
2022-11-01T18:54:11.252Z,14.08
2022-11-01T18:56:42.042Z,14.08
2022-11-01T18:59:15.023Z,14.08
2022-11-01T19:01:41.662Z,14.08
2022-11-01T19:04:27.714Z,14.06
2022-11-01T19:07:08.639Z,14.04
2022-11-01T19:09:37.876Z,14.00
2022-11-01T19:12:14.121Z,13.94
2022-11-01T19:14:41.473Z,13.87
2022-11-01T19:17:37.693Z,13.81
2022-11-01T19:20:20.632Z,13.81
2022-11-01T19:22:47.431Z,13.80
2022-11-01T19:25:20.492Z,13.76
2022-11-01T19:27:51.990Z,13.74
2022-11-01T19:30:29.799Z,13.71
2022-11-01T19:33:01.007Z,13.68
2022-11-01T19:35:27.641Z,13.69
2022-11-01T19:37:55.528Z,13.66
2022-11-01T19:40:31.119Z,13.65
2022-11-01T19:43:03.023Z,13.62
2022-11-01T19:45:32.561Z,13.58
2022-11-01T19:48:01.950Z,13.58
2022-11-01T19:50:42.897Z,13.55
2022-11-01T19:53:29.102Z,13.53
2022-11-01T19:56:03.209Z,13.55
2022-11-01T19:58:46.717Z,13.50
2022-11-01T20:01:24.001Z,13.53
2022-11-01T20:03:55.376Z,13.52
2022-11-01T20:06:29.646Z,13.46
2022-11-01T20:09:04.357Z,13.47
2022-11-01T20:11:32.467Z,13.44
2022-11-01T20:13:59.006Z,13.39
2022-11-01T20:16:25.484Z,13.40
2022-11-01T20:18:51.992Z,13.35
2022-11-01T20:21:18.508Z,13.31
2022-11-01T20:23:44.938Z,13.26
2022-11-01T20:26:12.176Z,13.22
2022-11-01T20:28:38.887Z,13.23
2022-11-01T20:31:05.587Z,13.26
2022-11-01T20:33:32.018Z,13.21
2022-11-01T20:35:58.760Z,13.16
2022-11-01T20:38:25.361Z,13.21
2022-11-01T20:40:51.999Z,13.25
2022-11-01T20:43:18.477Z,13.25
2022-11-01T20:45:44.928Z,13.25
2022-11-01T20:48:11.360Z,13.26
2022-11-01T20:50:38.044Z,13.21
2022-11-01T20:53:06.092Z,13.15
2022-11-01T20:55:33.788Z,13.17
2022-11-01T20:58:00.567Z,13.15
2022-11-01T21:00:27.730Z,13.16
2022-11-01T21:02:57.554Z,13.15
2022-11-01T21:05:27.026Z,13.10
2022-11-01T21:08:00.063Z,13.02
2022-11-01T21:10:38.296Z,12.94
2022-11-01T21:13:21.544Z,12.94
2022-11-01T21:15:48.454Z,13.00
2022-11-01T21:18:14.831Z,13.02
2022-11-01T21:20:44.435Z,13.02
2022-11-01T21:23:25.768Z,12.97
2022-11-01T21:25:53.452Z,12.90
2022-11-01T21:28:42.823Z,12.90
2022-11-01T21:31:15.210Z,12.92
2022-11-01T21:33:43.917Z,12.89
2022-11-01T21:36:35.026Z,12.87
2022-11-01T21:39:13.988Z,12.88
2022-11-01T21:41:59.156Z,12.89
2022-11-01T21:44:30.191Z,12.86
2022-11-01T21:47:08.689Z,12.81
2022-11-01T21:49:36.578Z,12.72
2022-11-01T21:52:05.359Z,12.67
2022-11-01T21:54:36.884Z,12.60
2022-11-01T21:57:05.828Z,12.63
2022-11-01T21:59:34.266Z,12.69
2022-11-01T22:02:01.466Z,12.71
2022-11-01T22:04:32.482Z,12.71
2022-11-01T22:07:04.841Z,12.66
2022-11-01T22:09:32.338Z,12.63
2022-11-01T22:11:59.193Z,12.69
2022-11-01T22:14:25.729Z,12.76
2022-11-01T22:16:52.162Z,12.78
2022-11-01T22:19:18.555Z,12.82
2022-11-01T22:24:12.331Z,12.71
2022-11-01T22:26:38.720Z,12.73
2022-11-01T22:29:05.949Z,12.77
2022-11-01T22:31:32.354Z,12.80
2022-11-01T22:33:58.981Z,12.79
2022-11-01T22:36:27.990Z,12.83
2022-11-01T22:38:56.796Z,12.78
2022-11-01T22:41:33.725Z,12.72
2022-11-01T22:44:13.559Z,12.67
2022-11-01T22:46:58.657Z,12.63
2022-11-01T22:49:37.461Z,12.45
2022-11-01T22:52:29.506Z,12.47
2022-11-01T22:55:21.991Z,12.56
2022-11-01T22:58:14.435Z,12.51
2022-11-01T23:00:40.859Z,12.39
2022-11-01T23:03:09.983Z,12.43
2022-11-01T23:05:36.778Z,12.47
2022-11-01T23:08:25.445Z,12.49
2022-11-01T23:10:52.198Z,12.44
2022-11-01T23:13:50.063Z,12.40
2022-11-01T23:16:34.883Z,12.38
2022-11-01T23:19:03.503Z,12.38
2022-11-01T23:21:30.181Z,12.40
2022-11-01T23:23:56.699Z,12.27
2022-11-01T23:26:23.844Z,12.24
2022-11-01T23:28:53.715Z,12.23
2022-11-01T23:31:20.936Z,12.24
2022-11-01T23:37:00.989Z,12.25
2022-11-01T23:40:13.249Z,12.22
2022-11-01T23:42:39.776Z,12.20
2022-11-01T23:45:19.602Z,12.20
2022-11-01T23:47:46.507Z,12.20
2022-11-01T23:50:20.404Z,12.21
2022-11-01T23:52:50.195Z,12.18
2022-11-01T23:55:24.450Z,12.15
2022-11-01T23:57:56.254Z,12.11
